createdAt,value
2019-06-27T00:00:28.343Z,12.00
2019-06-27T00:02:56.430Z,11.03
2019-06-27T00:05:24.462Z,11.07
2019-06-27T00:07:52.446Z,10.60
2019-06-27T00:10:20.433Z,11.80
2019-06-27T00:12:48.307Z,11.27
2019-06-27T00:15:16.284Z,11.17
2019-06-27T00:17:44.298Z,11.70
2019-06-27T00:20:12.144Z,10.87
2019-06-27T00:22:41.279Z,11.63
2019-06-27T00:25:09.461Z,11.10
2019-06-27T00:27:37.336Z,10.43
2019-06-27T00:30:05.402Z,11.03
2019-06-27T00:32:33.343Z,10.40
2019-06-27T00:35:01.332Z,9.43
2019-06-27T00:37:29.306Z,11.23
2019-06-27T00:39:57.209Z,10.57
2019-06-27T00:42:25.157Z,11.00
2019-06-27T00:44:53.033Z,11.47
2019-06-27T00:47:20.981Z,10.70
2019-06-27T00:49:48.884Z,10.80
2019-06-27T00:52:16.796Z,10.80
2019-06-27T00:54:44.747Z,10.83
2019-06-27T00:57:14.443Z,11.20
2019-06-27T00:59:44.573Z,12.30
2019-06-27T01:02:12.880Z,10.90
2019-06-27T01:04:40.836Z,10.63
2019-06-27T01:07:08.749Z,12.20
2019-06-27T01:09:36.711Z,11.73
2019-06-27T01:12:04.796Z,10.70
2019-06-27T01:14:33.502Z,10.60
2019-06-27T01:17:01.661Z,10.63
2019-06-27T01:19:29.610Z,10.73
2019-06-27T01:21:57.512Z,11.43
2019-06-27T01:24:25.350Z,11.70
2019-06-27T01:26:53.225Z,10.10
2019-06-27T01:29:21.097Z,10.60
2019-06-27T01:31:49.053Z,11.00
2019-06-27T01:34:19.680Z,10.30
2019-06-27T01:36:47.524Z,9.77
2019-06-27T01:39:15.417Z,10.23
2019-06-27T01:41:43.358Z,9.83
2019-06-27T01:44:33.613Z,9.90
2019-06-27T01:47:02.401Z,9.83
2019-06-27T01:49:30.210Z,9.90
2019-06-27T01:51:58.086Z,10.10
2019-06-27T01:54:26.049Z,10.17
2019-06-27T01:56:53.932Z,10.43
2019-06-27T01:59:21.748Z,10.47
2019-06-27T02:01:49.592Z,10.80
2019-06-27T02:04:17.487Z,11.47
2019-06-27T02:06:45.438Z,11.90
2019-06-27T02:09:13.306Z,11.30
2019-06-27T02:11:41.247Z,10.80
2019-06-27T02:14:09.092Z,10.43
2019-06-27T02:16:37.028Z,10.10
2019-06-27T02:19:04.891Z,11.43
2019-06-27T02:21:32.759Z,10.53
2019-06-27T02:24:00.608Z,10.70
2019-06-27T02:26:28.458Z,11.37
2019-06-27T02:28:56.323Z,10.87
2019-06-27T02:31:24.269Z,9.80
2019-06-27T02:33:53.208Z,10.30
2019-06-27T02:36:21.193Z,9.97
2019-06-27T02:38:49.002Z,10.20
2019-06-27T02:41:16.877Z,10.43
2019-06-27T02:43:44.996Z,9.20
2019-06-27T02:46:12.907Z,10.00
2019-06-27T02:48:40.770Z,9.77
2019-06-27T02:51:08.734Z,9.40
2019-06-27T02:53:36.566Z,9.80
2019-06-27T02:56:04.452Z,9.57
2019-06-27T02:58:32.837Z,10.07
2019-06-27T03:01:00.963Z,9.40
2019-06-27T03:03:28.867Z,9.60
2019-06-27T03:05:56.828Z,9.30
2019-06-27T03:08:24.681Z,9.00
2019-06-27T03:10:52.636Z,9.90
2019-06-27T03:13:20.537Z,8.70
2019-06-27T03:15:48.392Z,9.47
2019-06-27T03:18:16.846Z,8.50
2019-06-27T03:20:44.825Z,8.27
2019-06-27T03:23:12.709Z,8.50
2019-06-27T03:25:40.633Z,8.10
2019-06-27T03:28:08.476Z,7.97
2019-06-27T03:30:36.393Z,7.70
2019-06-27T03:33:04.272Z,8.07
2019-06-27T03:35:32.220Z,7.60
2019-06-27T03:38:00.166Z,7.90
2019-06-27T03:40:28.098Z,7.50
2019-06-27T03:42:56.930Z,7.47
2019-06-27T03:45:24.807Z,8.43
2019-06-27T03:47:53.133Z,8.43
2019-06-27T03:50:21.134Z,9.00
2019-06-27T03:52:49.115Z,7.87
2019-06-27T03:55:17.088Z,7.80
2019-06-27T03:57:45.640Z,7.80
2019-06-27T04:00:23.256Z,7.37
2019-06-27T04:02:51.114Z,8.00
2019-06-27T04:05:19.914Z,8.27
2019-06-27T04:07:47.883Z,7.60
2019-06-27T04:10:17.623Z,8.13
2019-06-27T04:12:46.030Z,8.03
2019-06-27T04:15:14.055Z,7.97
2019-06-27T04:17:41.996Z,8.53
2019-06-27T04:20:10.258Z,7.70
2019-06-27T04:22:38.119Z,8.50
2019-06-27T04:25:07.692Z,8.23
2019-06-27T04:27:35.618Z,9.20
2019-06-27T04:30:03.733Z,7.50
2019-06-27T04:32:31.603Z,7.83
2019-06-27T04:34:59.519Z,8.20
2019-06-27T04:37:27.419Z,7.90
2019-06-27T04:39:55.335Z,8.37
2019-06-27T04:42:23.182Z,7.33
2019-06-27T04:44:51.055Z,8.73
2019-06-27T04:47:20.020Z,7.93
2019-06-27T04:49:47.907Z,7.63
2019-06-27T04:52:15.917Z,8.80
2019-06-27T04:54:43.762Z,8.60
2019-06-27T04:57:12.509Z,7.60
2019-06-27T04:59:52.342Z,8.87
2019-06-27T05:02:10.457Z,8.80
2019-06-27T05:04:38.334Z,8.07
2019-06-27T05:07:06.192Z,8.50
2019-06-27T05:09:34.239Z,7.40
2019-06-27T05:12:02.125Z,8.10
2019-06-27T05:14:32.574Z,8.07
2019-06-27T05:17:00.312Z,8.10
2019-06-27T05:19:28.259Z,7.07
2019-06-27T05:21:56.168Z,7.57
2019-06-27T05:24:24.227Z,8.50
2019-06-27T05:26:52.215Z,6.03
2019-06-27T05:29:20.197Z,7.03
2019-06-27T05:31:48.067Z,6.30
2019-06-27T05:34:15.993Z,6.23
2019-06-27T05:36:43.868Z,6.17
2019-06-27T05:39:11.822Z,6.90
2019-06-27T05:41:39.673Z,5.93
2019-06-27T05:44:07.622Z,5.93
2019-06-27T05:46:35.469Z,5.90
2019-06-27T05:49:03.395Z,5.63
2019-06-27T05:51:31.241Z,4.83
2019-06-27T05:53:59.139Z,5.27
2019-06-27T05:56:27.282Z,5.37
2019-06-27T05:58:55.291Z,5.63
2019-06-27T06:01:23.431Z,5.60
2019-06-27T06:03:51.332Z,6.20
2019-06-27T06:06:19.177Z,7.03
2019-06-27T06:08:47.088Z,6.63
2019-06-27T06:11:14.898Z,7.70
2019-06-27T06:13:42.789Z,7.33
2019-06-27T06:16:10.614Z,7.07
2019-06-27T06:18:38.499Z,7.13
2019-06-27T06:21:06.371Z,7.33
2019-06-27T06:23:34.431Z,5.90
2019-06-27T06:26:02.351Z,5.93
2019-06-27T06:28:30.403Z,6.00
2019-06-27T06:30:58.251Z,6.00
2019-06-27T06:33:26.100Z,5.50
2019-06-27T06:35:54.739Z,5.77
2019-06-27T06:38:23.114Z,5.37
2019-06-27T06:40:50.962Z,6.40
2019-06-27T06:43:18.812Z,5.80
2019-06-27T06:45:46.668Z,5.43
2019-06-27T06:48:14.535Z,5.43
2019-06-27T06:50:42.346Z,4.53
2019-06-27T06:53:10.193Z,4.77
2019-06-27T06:55:38.140Z,5.30
2019-06-27T06:58:06.106Z,5.20
2019-06-27T07:00:33.986Z,6.30
2019-06-27T07:03:01.846Z,5.77
2019-06-27T07:05:29.929Z,4.90
2019-06-27T07:07:57.776Z,5.30
2019-06-27T07:10:25.617Z,6.13
2019-06-27T07:12:53.494Z,5.33
2019-06-27T07:15:21.631Z,5.97
2019-06-27T07:17:49.481Z,5.33
2019-06-27T07:20:18.026Z,5.33
2019-06-27T07:22:46.142Z,5.77
2019-06-27T07:25:14.027Z,6.03
2019-06-27T07:27:42.993Z,5.27
2019-06-27T07:30:11.438Z,5.53
2019-06-27T07:32:39.300Z,5.93
2019-06-27T07:35:07.196Z,3.97
2019-06-27T07:37:36.158Z,4.20
2019-06-27T07:40:04.955Z,4.13
2019-06-27T07:42:33.211Z,3.90
2019-06-27T07:45:01.069Z,4.60
2019-06-27T07:47:28.931Z,4.57
2019-06-27T07:49:56.840Z,4.50
2019-06-27T07:52:24.670Z,3.60
2019-06-27T07:54:52.541Z,3.30
2019-06-27T07:57:20.387Z,3.97
2019-06-27T07:59:48.482Z,3.83
2019-06-27T08:02:16.560Z,4.33
2019-06-27T08:04:44.514Z,4.43
2019-06-27T08:07:12.476Z,4.20
2019-06-27T08:09:40.407Z,4.50
2019-06-27T08:12:08.247Z,4.60
2019-06-27T08:14:36.148Z,4.67
2019-06-27T08:17:04.176Z,4.30
2019-06-27T08:19:32.090Z,4.17
2019-06-27T08:22:00.109Z,3.90
2019-06-27T08:24:27.978Z,4.00
2019-06-27T08:26:59.471Z,3.30
2019-06-27T08:29:27.284Z,4.23
2019-06-27T08:31:55.146Z,4.57
2019-06-27T08:34:22.968Z,4.30
2019-06-27T08:36:50.877Z,3.60
2019-06-27T08:39:18.834Z,4.23
2019-06-27T08:41:46.713Z,4.40
2019-06-27T08:44:14.649Z,4.40
2019-06-27T08:46:42.487Z,4.10
2019-06-27T08:49:10.434Z,4.10
2019-06-27T08:51:38.274Z,5.07
2019-06-27T08:54:06.248Z,4.77
2019-06-27T08:56:34.136Z,4.97
2019-06-27T08:59:02.029Z,4.60
2019-06-27T09:01:29.882Z,4.53
2019-06-27T09:03:57.715Z,4.93
2019-06-27T09:06:26.665Z,4.77
2019-06-27T09:08:54.534Z,4.77
2019-06-27T09:11:22.428Z,4.17
2019-06-27T09:13:50.324Z,4.60
2019-06-27T09:16:18.334Z,3.93
2019-06-27T09:18:46.184Z,3.80
2019-06-27T09:21:14.073Z,4.10
2019-06-27T09:23:41.998Z,3.87
2019-06-27T09:26:09.885Z,3.33
2019-06-27T09:28:37.731Z,2.90
2019-06-27T09:31:05.590Z,3.43
2019-06-27T09:33:33.420Z,4.10
2019-06-27T09:36:01.293Z,4.20
2019-06-27T09:38:29.187Z,3.43
2019-06-27T09:40:57.074Z,3.97
2019-06-27T09:43:24.953Z,3.60
2019-06-27T09:45:52.863Z,3.00
2019-06-27T09:48:20.812Z,3.20
2019-06-27T09:50:48.663Z,2.90
2019-06-27T09:53:16.543Z,3.10
2019-06-27T09:55:47.317Z,2.90
2019-06-27T09:58:14.313Z,2.60
2019-06-27T10:00:44.081Z,2.60
2019-06-27T10:03:12.001Z,2.47
2019-06-27T10:05:39.870Z,2.23
2019-06-27T10:08:07.766Z,1.70
2019-06-27T10:10:35.578Z,2.10
2019-06-27T10:13:03.412Z,2.63
2019-06-27T10:15:31.262Z,2.07
2019-06-27T10:17:59.207Z,2.10
2019-06-27T10:20:27.209Z,2.13
2019-06-27T10:22:55.222Z,1.80
2019-06-27T10:25:23.123Z,1.80
2019-06-27T10:27:50.942Z,1.90
2019-06-27T10:30:19.150Z,1.60
2019-06-27T10:32:58.227Z,2.17
2019-06-27T10:35:16.890Z,1.60
2019-06-27T10:37:44.711Z,1.43
2019-06-27T10:40:13.760Z,1.83
2019-06-27T10:42:42.703Z,2.23
2019-06-27T10:45:10.781Z,1.30
2019-06-27T10:47:39.113Z,1.53
2019-06-27T10:50:08.709Z,1.43
2019-06-27T10:52:37.686Z,1.60
2019-06-27T10:55:05.649Z,1.37
2019-06-27T10:57:33.492Z,1.00
2019-06-27T11:00:01.527Z,1.40
2019-06-27T11:02:29.892Z,1.40
2019-06-27T11:04:57.724Z,1.53
2019-06-27T11:07:25.585Z,1.10
2019-06-27T11:09:53.407Z,1.70
2019-06-27T11:12:21.245Z,1.50
2019-06-27T11:14:58.562Z,1.30
2019-06-27T11:17:18.941Z,2.00
2019-06-27T11:19:52.482Z,0.90
2019-06-27T11:22:16.621Z,1.33
2019-06-27T11:24:44.411Z,1.37
2019-06-27T11:27:12.257Z,1.53
2019-06-27T11:29:40.254Z,1.13
2019-06-27T11:32:08.093Z,1.40
2019-06-27T11:34:35.954Z,1.20
2019-06-27T11:37:04.606Z,1.77
2019-06-27T11:39:32.591Z,1.80
2019-06-27T11:42:00.505Z,1.57
2019-06-27T11:44:28.549Z,1.37
2019-06-27T11:46:56.520Z,1.80
2019-06-27T11:49:24.434Z,1.57
2019-06-27T11:51:52.552Z,1.40
2019-06-27T11:54:20.573Z,1.80
2019-06-27T11:56:48.741Z,1.97
2019-06-27T11:59:16.659Z,1.20
2019-06-27T12:01:44.610Z,1.53
2019-06-27T12:04:12.763Z,1.60
2019-06-27T12:06:42.125Z,1.50
2019-06-27T12:09:10.850Z,1.50
2019-06-27T12:11:38.936Z,1.40
2019-06-27T12:14:07.012Z,1.50
2019-06-27T12:16:34.903Z,1.33
2019-06-27T12:19:03.777Z,1.40
2019-06-27T12:21:31.756Z,1.27
2019-06-27T12:23:59.891Z,1.77
2019-06-27T12:26:27.886Z,1.33
2019-06-27T12:28:56.005Z,1.50
2019-06-27T12:31:23.951Z,1.60
2019-06-27T12:34:05.549Z,1.43
2019-06-27T12:36:21.862Z,1.20
2019-06-27T12:38:49.892Z,1.20
2019-06-27T12:41:17.943Z,1.37
2019-06-27T12:43:46.109Z,1.50
2019-06-27T12:46:14.180Z,1.50
2019-06-27T12:48:42.277Z,1.70
2019-06-27T12:51:10.314Z,1.77
2019-06-27T12:53:38.363Z,1.57
2019-06-27T12:56:06.488Z,1.83
2019-06-27T12:58:34.409Z,1.20
2019-06-27T13:01:02.612Z,1.70
2019-06-27T13:03:30.769Z,1.70
2019-06-27T13:05:58.792Z,1.50
2019-06-27T13:08:26.777Z,1.30
2019-06-27T13:10:54.891Z,2.00
2019-06-27T13:13:23.084Z,1.77
2019-06-27T13:15:51.048Z,1.60
2019-06-27T13:18:19.725Z,1.70
2019-06-27T13:20:57.912Z,1.60
2019-06-27T13:23:18.858Z,1.60
2019-06-27T13:25:47.328Z,1.60
2019-06-27T13:28:15.322Z,1.33
2019-06-27T13:30:45.929Z,1.10
2019-06-27T13:33:14.375Z,1.57
2019-06-27T13:35:42.377Z,1.30
2019-06-27T13:38:10.354Z,1.40
2019-06-27T13:40:38.305Z,1.73
2019-06-27T13:43:06.269Z,1.20
2019-06-27T13:45:34.379Z,1.20
2019-06-27T13:48:02.368Z,1.50
2019-06-27T13:50:30.260Z,1.87
2019-06-27T13:52:59.057Z,1.47
2019-06-27T13:55:27.087Z,1.30
2019-06-27T13:57:57.641Z,1.30
2019-06-27T14:00:50.230Z,1.40
2019-06-27T14:03:19.478Z,1.63
2019-06-27T14:05:48.186Z,1.40
2019-06-27T14:08:16.157Z,1.50
2019-06-27T14:10:44.034Z,1.60
2019-06-27T14:13:12.028Z,1.77
2019-06-27T14:15:39.948Z,1.10
2019-06-27T14:18:07.889Z,1.27
2019-06-27T14:20:35.855Z,1.57
2019-06-27T14:23:04.206Z,1.60
2019-06-27T14:25:32.337Z,1.80
2019-06-27T14:28:00.341Z,1.43
2019-06-27T14:30:28.407Z,1.50
2019-06-27T14:32:56.460Z,1.57
2019-06-27T14:35:24.508Z,1.40
2019-06-27T14:37:52.560Z,1.73
2019-06-27T14:40:20.504Z,1.50
2019-06-27T14:42:48.588Z,1.50
2019-06-27T14:45:18.412Z,1.50
2019-06-27T14:47:46.405Z,1.70
2019-06-27T14:50:14.399Z,1.63
2019-06-27T14:52:42.643Z,1.60
2019-06-27T14:55:11.517Z,1.90
2019-06-27T14:57:39.616Z,1.70
2019-06-27T15:00:08.678Z,1.40
2019-06-27T15:02:36.789Z,1.90
2019-06-27T15:05:05.610Z,2.10
2019-06-27T15:07:33.599Z,1.90
2019-06-27T15:10:01.840Z,2.00
2019-06-27T15:12:29.866Z,1.87
2019-06-27T15:14:57.852Z,1.77
2019-06-27T15:17:25.881Z,1.53
2019-06-27T15:19:53.901Z,1.60
2019-06-27T15:22:22.002Z,1.90
2019-06-27T15:24:50.017Z,1.70
2019-06-27T15:27:17.990Z,1.70
2019-06-27T15:29:45.886Z,1.60
2019-06-27T15:32:14.061Z,1.93
2019-06-27T15:34:42.004Z,1.80
2019-06-27T15:37:09.986Z,2.00
2019-06-27T15:39:38.055Z,1.90
2019-06-27T15:42:06.143Z,1.70
2019-06-27T15:44:34.175Z,1.73
2019-06-27T15:47:02.114Z,1.57
2019-06-27T15:49:30.780Z,1.77
2019-06-27T15:51:59.978Z,2.17
2019-06-27T15:54:28.159Z,2.10
2019-06-27T15:56:57.311Z,1.70
2019-06-27T15:59:25.498Z,2.00
2019-06-27T16:01:53.527Z,1.80
2019-06-27T16:04:32.318Z,2.20
2019-06-27T16:06:52.700Z,2.20
2019-06-27T16:09:21.155Z,2.17
2019-06-27T16:11:49.226Z,2.07
2019-06-27T16:14:17.357Z,2.30
2019-06-27T16:16:45.426Z,2.20
2019-06-27T16:19:13.549Z,2.10
2019-06-27T16:21:41.539Z,1.90
2019-06-27T16:24:09.614Z,2.80
2019-06-27T16:26:37.844Z,2.00
2019-06-27T16:29:05.796Z,2.50
2019-06-27T16:31:33.910Z,2.20
2019-06-27T16:34:02.149Z,2.07
2019-06-27T16:36:30.116Z,1.93
2019-06-27T16:38:58.321Z,2.23
2019-06-27T16:41:26.261Z,2.60
2019-06-27T16:43:54.318Z,2.03
2019-06-27T16:46:22.743Z,2.03
2019-06-27T16:48:50.843Z,2.60
2019-06-27T16:51:20.451Z,2.33
2019-06-27T16:53:48.713Z,2.17
2019-06-27T16:56:16.691Z,2.53
2019-06-27T16:58:45.452Z,2.20
2019-06-27T17:01:13.340Z,2.00
2019-06-27T17:03:41.636Z,1.93
2019-06-27T17:06:09.620Z,1.80
2019-06-27T17:08:37.601Z,2.20
2019-06-27T17:11:05.550Z,2.13
2019-06-27T17:13:33.674Z,1.87
2019-06-27T17:16:01.722Z,2.00
2019-06-27T17:18:29.775Z,2.37
2019-06-27T17:20:57.917Z,1.90
2019-06-27T17:23:25.889Z,2.20
2019-06-27T17:25:55.249Z,2.30
2019-06-27T17:28:23.418Z,2.30
2019-06-27T17:30:51.436Z,2.30
2019-06-27T17:33:19.500Z,2.13
2019-06-27T17:35:47.529Z,2.33
2019-06-27T17:38:15.597Z,1.93
2019-06-27T17:40:44.086Z,3.73
2019-06-27T17:43:12.079Z,3.20
2019-06-27T17:45:40.397Z,1.93
2019-06-27T17:48:08.374Z,1.77
2019-06-27T17:50:36.327Z,1.60
2019-06-27T17:53:04.374Z,1.67
2019-06-27T17:55:32.351Z,1.80
2019-06-27T17:58:00.302Z,1.80
2019-06-27T18:00:28.361Z,1.67
2019-06-27T18:02:56.408Z,1.50
2019-06-27T18:05:24.376Z,2.10
2019-06-27T18:07:52.285Z,1.60
2019-06-27T18:10:20.406Z,1.60
2019-06-27T18:12:48.460Z,1.20
2019-06-27T18:15:16.655Z,1.47
2019-06-27T18:17:44.602Z,1.33
2019-06-27T18:20:15.054Z,1.50
2019-06-27T18:22:42.996Z,1.43
2019-06-27T18:25:11.444Z,1.97
2019-06-27T18:27:39.358Z,1.90
2019-06-27T18:30:07.753Z,1.83
2019-06-27T18:32:36.877Z,1.63
2019-06-27T18:35:05.420Z,1.90
2019-06-27T18:37:33.498Z,1.90
2019-06-27T18:40:02.597Z,1.60
2019-06-27T18:42:30.612Z,1.30
2019-06-27T18:44:58.685Z,1.63
2019-06-27T18:47:26.634Z,1.67
2019-06-27T18:49:55.066Z,1.80
2019-06-27T18:52:23.854Z,1.73
2019-06-27T18:54:51.870Z,1.80
2019-06-27T18:57:19.953Z,1.60
2019-06-27T18:59:47.935Z,1.60
2019-06-27T19:02:16.885Z,1.80
2019-06-27T19:04:44.775Z,1.70
2019-06-27T19:07:12.991Z,1.60
2019-06-27T19:09:41.075Z,2.00
2019-06-27T19:12:09.038Z,1.83
2019-06-27T19:14:36.922Z,1.80
2019-06-27T19:17:04.866Z,2.13
2019-06-27T19:19:34.958Z,2.10
2019-06-27T19:22:22.524Z,1.70
2019-06-27T19:25:11.710Z,1.83
2019-06-27T19:27:40.033Z,2.00
2019-06-27T19:30:08.119Z,1.93
2019-06-27T19:32:36.222Z,1.73
2019-06-27T19:35:04.665Z,2.00
2019-06-27T19:37:32.653Z,2.43
2019-06-27T19:40:00.572Z,2.10
2019-06-27T19:42:28.739Z,1.87
2019-06-27T19:44:56.715Z,1.90
2019-06-27T19:47:24.778Z,2.53
2019-06-27T19:49:52.744Z,2.70
2019-06-27T19:52:21.058Z,2.77
2019-06-27T19:54:49.088Z,2.53
2019-06-27T19:57:17.326Z,2.20
2019-06-27T19:59:45.363Z,2.20
2019-06-27T20:02:13.312Z,1.80
2019-06-27T20:04:41.271Z,1.90
2019-06-27T20:07:09.228Z,1.97
2019-06-27T20:09:38.601Z,2.20
2019-06-27T20:12:06.687Z,2.60
2019-06-27T20:14:34.682Z,2.50
2019-06-27T20:17:02.705Z,2.50
2019-06-27T20:19:30.835Z,2.30
2019-06-27T20:22:00.179Z,2.17
2019-06-27T20:24:28.297Z,1.50
2019-06-27T20:26:56.289Z,2.97
2019-06-27T20:29:24.318Z,2.00
2019-06-27T20:31:52.366Z,2.17
2019-06-27T20:34:20.466Z,2.20
2019-06-27T20:36:48.550Z,2.07
2019-06-27T20:39:17.417Z,2.20
2019-06-27T20:41:45.396Z,2.43
2019-06-27T20:44:14.164Z,2.37
2019-06-27T20:46:42.086Z,2.90
2019-06-27T20:49:10.909Z,2.10
2019-06-27T20:51:38.920Z,2.30
2019-06-27T20:54:06.959Z,2.00
2019-06-27T20:56:37.071Z,2.80
2019-06-27T20:59:05.055Z,2.40
2019-06-27T21:01:33.017Z,2.43
2019-06-27T21:04:01.142Z,2.23
2019-06-27T21:06:29.114Z,2.67
2019-06-27T21:08:57.694Z,2.23
2019-06-27T21:11:26.679Z,1.87
2019-06-27T21:13:54.627Z,2.00
2019-06-27T21:16:22.676Z,2.13
2019-06-27T21:18:51.733Z,2.37
2019-06-27T21:21:19.642Z,2.57
2019-06-27T21:23:47.602Z,2.30
2019-06-27T21:26:15.603Z,2.23
2019-06-27T21:28:43.579Z,2.67
2019-06-27T21:31:11.552Z,1.70
2019-06-27T21:33:40.322Z,2.20
2019-06-27T21:36:08.177Z,2.47
2019-06-27T21:38:36.109Z,2.70
2019-06-27T21:41:04.107Z,2.63
2019-06-27T21:43:32.039Z,2.77
2019-06-27T21:45:59.938Z,2.20
2019-06-27T21:48:27.809Z,2.00
2019-06-27T21:50:55.791Z,2.47
2019-06-27T21:53:23.751Z,2.30
2019-06-27T21:55:51.603Z,2.00
2019-06-27T21:58:19.483Z,2.83
2019-06-27T22:00:47.831Z,2.00
2019-06-27T22:03:17.275Z,2.63
2019-06-27T22:05:45.256Z,2.40
2019-06-27T22:08:13.153Z,2.67
2019-06-27T22:10:41.031Z,2.67
2019-06-27T22:13:09.014Z,3.10
2019-06-27T22:15:36.910Z,2.37
2019-06-27T22:18:04.820Z,2.67
2019-06-27T22:20:32.837Z,2.43
2019-06-27T22:23:00.752Z,2.57
2019-06-27T22:25:39.737Z,2.27
2019-06-27T22:27:58.734Z,2.50
2019-06-27T22:30:27.782Z,2.87
2019-06-27T22:32:55.669Z,2.50
2019-06-27T22:35:23.562Z,3.17
2019-06-27T22:38:10.011Z,3.10
2019-06-27T22:40:56.482Z,2.50
2019-06-27T22:43:43.084Z,2.23
2019-06-27T22:46:30.592Z,2.60
2019-06-27T22:49:00.094Z,2.43
2019-06-27T22:51:50.313Z,3.20
2019-06-27T22:54:19.093Z,2.50
2019-06-27T22:56:47.168Z,2.30
2019-06-27T22:59:15.093Z,2.33
2019-06-27T23:01:42.952Z,2.40
2019-06-27T23:04:10.855Z,2.50
2019-06-27T23:06:38.776Z,2.67
2019-06-27T23:09:07.847Z,2.77
2019-06-27T23:11:35.749Z,2.63
2019-06-27T23:14:03.680Z,2.70
2019-06-27T23:16:31.713Z,2.50
2019-06-27T23:18:59.610Z,2.77
2019-06-27T23:21:27.480Z,2.73
2019-06-27T23:23:55.345Z,2.57
2019-06-27T23:26:24.314Z,2.37
2019-06-27T23:28:52.284Z,2.60
2019-06-27T23:31:20.264Z,2.53
2019-06-27T23:33:48.118Z,2.80
2019-06-27T23:36:15.995Z,3.30
2019-06-27T23:38:43.913Z,3.23
2019-06-27T23:41:11.792Z,2.87
2019-06-27T23:43:39.703Z,2.47
2019-06-27T23:46:09.570Z,2.80
2019-06-27T23:48:37.474Z,2.60
2019-06-27T23:51:05.317Z,3.10
2019-06-27T23:53:33.169Z,3.57
2019-06-27T23:56:01.035Z,2.90
2019-06-27T23:58:28.900Z,2.80
